Time;durP1;ratioP1;P1;durP2;ratioP2;P2;SDS_P1;SDS_P2;PMS_P1;PMS_P2;Temp;Humidity;BMP_temperature;BMP_pressure;BME280_temperature;BME280_humidity;BME280_pressure;Samples;Min_cycle;Max_cycle;Signal;HPM_P1;HPM_P2
2023/06/13 00:00:03;;;;;;;;;;;;;;;;;;5088518;28;20308;-91
2023/06/13 00:02:29;;;;;;;;;;;;;;;;;;5078692;28;20281;-90
2023/06/13 00:04:55;;;;;;;;;;;;;;;;;;5078640;28;19931;-91
2023/06/13 00:07:22;;;;;;;;;;;;;;;;;;5062407;28;19931;-89
2023/06/13 00:09:47;;;;;;;;;;;;;;;;;;5068697;28;19920;-90
2023/06/13 00:12:14;;;;;;;;;;;;;;;;;;5116044;28;19979;-90
2023/06/13 00:14:40;;;;;;;;;;;;;;;;;;5115706;28;19924;-90
2023/06/13 00:17:06;;;;;;;;;;;;;;;;;;5081208;28;19943;-89
2023/06/13 00:19:32;;;;;;;;;;;;;;;;;;5061861;28;19971;-90
2023/06/13 00:21:59;;;;;;;;;;;;;;;;;;5061760;28;19920;-90
2023/06/13 00:24:25;;;;;;;;;;;;;;;;;;5061923;28;19920;-90
2023/06/13 00:26:51;;;;;;;;;;;;;;;;;;5091204;28;19930;-90
2023/06/13 00:29:17;;;;;;;;;;;;;;;;;;5097740;28;20002;-89
2023/06/13 00:31:43;;;;;;;;;;;;;;;;;;5096879;28;19926;-90
2023/06/13 00:34:09;;;;;;;;;;;;;;;;;;5078222;28;19944;-90
2023/06/13 00:36:37;;;;;;;;;;;;;;;;;;5061696;28;20407;-90
2023/06/13 00:39:03;;;;;;;;;;;;;;;;;;5061460;28;19920;-89
2023/06/13 00:41:28;;;;;;;;;;;;;;;;;;5077936;28;19942;-90
2023/06/13 00:43:54;;;;;;;;;;;;;;;;;;5061271;28;19920;-90
2023/06/13 00:46:21;;;;;;;;;;;;;;;;;;5087963;28;19928;-90
2023/06/13 00:48:48;;;;;;;;;;;;;;;;;;5114964;28;19983;-90
2023/06/13 00:51:14;;;;;;;;;;;;;;;;;;5097912;28;19970;-92
2023/06/13 00:53:40;;;;;;;;;;;;;;;;;;5085520;28;19924;-91
2023/06/13 00:56:07;;;;;;;;;;;;;;;;;;5085811;28;19943;-91
2023/06/13 00:58:33;;;;;;;;;;;;;;;;;;5114906;28;19924;-91
2023/06/13 01:00:59;;;;;;;;;;;;;;;;;;5097721;28;19919;-91
2023/06/13 01:03:25;;;;;;;;;;;;;;;;;;5100530;28;20057;-90
2023/06/13 01:05:51;;;;;;;;;;;;;;;;;;5077371;28;20001;-91
2023/06/13 01:08:17;;;;;;;;;;;;;;;;;;5077481;28;19920;-91
2023/06/13 01:10:43;;;;;;;;;;;;;;;;;;5061466;28;19924;-90
2023/06/13 01:13:09;;;;;;;;;;;;;;;;;;5060943;28;19920;-90
2023/06/13 01:15:34;;;;;;;;;;;;;;;;;;5063361;28;19931;-91
2023/06/13 01:18:01;;;;;;;;;;;;;;;;;;5114776;28;20334;-91
2023/06/13 01:20:27;;;;;;;;;;;;;;;;;;5097026;28;19923;-90
2023/06/13 01:22:54;;;;;;;;;;;;;;;;;;5104031;28;19969;-90
2023/06/13 01:25:21;;;;;;;;;;;;;;;;;;5094819;28;20280;-91
2023/06/13 01:27:49;;;;;;;;;;;;;;;;;;5097264;28;19972;-91
2023/06/13 01:30:15;;;;;;;;;;;;;;;;;;5114304;28;19983;-91
2023/06/13 01:32:41;;;;;;;;;;;;;;;;;;5107188;28;20011;-90
2023/06/13 01:35:06;;;;;;;;;;;;;;;;;;5060294;28;19966;-91
2023/06/13 01:37:32;;;;;;;;;;;;;;;;;;5096041;28;20376;-91
2023/06/13 01:39:58;;;;;;;;;;;;;;;;;;5096720;28;19919;-90
2023/06/13 01:42:24;;;;;;;;;;;;;;;;;;5114015;28;20395;-89
2023/06/13 01:44:50;;;;;;;;;;;;;;;;;;5113579;28;19993;-90
2023/06/13 01:47:16;;;;;;;;;;;;;;;;;;5076711;28;19920;-88
2023/06/13 01:49:42;;;;;;;;;;;;;;;;;;5059830;28;20015;-91
2023/06/13 01:52:08;;;;;;;;;;;;;;;;;;5059805;28;20360;-92
2023/06/13 01:54:34;;;;;;;;;;;;;;;;;;5076760;28;19931;-92
2023/06/13 01:57:00;;;;;;;;;;;;;;;;;;5093784;28;19920;-92
2023/06/13 01:59:26;;;;;;;;;;;;;;;;;;5093428;28;19931;-92
2023/06/13 02:01:52;;;;;;;;;;;;;;;;;;5093297;28;20414;-92
2023/06/13 02:04:18;;;;;;;;;;;;;;;;;;5076812;28;20327;-91
2023/06/13 02:06:43;;;;;;;;;;;;;;;;;;5091003;28;19924;-92
2023/06/13 02:09:10;;;;;;;;;;;;;;;;;;5113802;28;19964;-91
2023/06/13 02:11:36;;;;;;;;;;;;;;;;;;5096693;28;19919;-92
2023/06/13 02:14:02;;;;;;;;;;;;;;;;;;5113614;28;19935;-93
2023/06/13 02:16:30;;;;;;;;;;;;;;;;;;5100037;28;19920;-90
2023/06/13 02:18:58;;;;;;;;;;;;;;;;;;5076085;28;19942;-91
2023/06/13 02:21:24;;;;;;;;;;;;;;;;;;5093021;28;19927;-92
2023/06/13 02:23:50;;;;;;;;;;;;;;;;;;5093010;28;19920;-91
2023/06/13 02:26:16;;;;;;;;;;;;;;;;;;5086935;28;19972;-91
2023/06/13 02:28:42;;;;;;;;;;;;;;;;;;5096121;28;19920;-91
2023/06/13 02:31:08;;;;;;;;;;;;;;;;;;5113277;28;19920;-91
2023/06/13 02:33:34;;;;;;;;;;;;;;;;;;5096111;28;20368;-91
2023/06/13 02:36:00;;;;;;;;;;;;;;;;;;5104106;28;19931;-90
2023/06/13 02:38:26;;;;;;;;;;;;;;;;;;5092969;28;19985;-90
2023/06/13 02:40:53;;;;;;;;;;;;;;;;;;5092689;28;19920;-90
2023/06/13 02:43:19;;;;;;;;;;;;;;;;;;5075909;28;20316;-91
2023/06/13 02:45:45;;;;;;;;;;;;;;;;;;5098872;28;19976;-91
2023/06/13 02:48:11;;;;;;;;;;;;;;;;;;5113115;28;20329;-90
2023/06/13 02:50:37;;;;;;;;;;;;;;;;;;5095825;28;20372;-90
2023/06/13 02:53:03;;;;;;;;;;;;;;;;;;5112633;28;19919;-90
2023/06/13 02:55:29;;;;;;;;;;;;;;;;;;5098322;28;20001;-90
2023/06/13 02:57:55;;;;;;;;;;;;;;;;;;5112504;28;19919;-91
2023/06/13 03:00:21;;;;;;;;;;;;;;;;;;5095591;28;19963;-90
2023/06/13 03:02:47;;;;;;;;;;;;;;;;;;5096750;28;19973;-91
2023/06/13 03:05:16;;;;;;;;;;;;;;;;;;5094888;28;20422;-90
2023/06/13 03:07:46;;;;;;;;;;;;;;;;;;5059822;28;19920;-91
2023/06/13 03:10:12;;;;;;;;;;;;;;;;;;5059795;28;19946;-92
2023/06/13 03:12:38;;;;;;;;;;;;;;;;;;5076906;28;19924;-92
2023/06/13 03:15:04;;;;;;;;;;;;;;;;;;5060131;28;20273;-91
2023/06/13 03:17:30;;;;;;;;;;;;;;;;;;5079863;28;19982;-92
2023/06/13 03:19:56;;;;;;;;;;;;;;;;;;5112914;28;19923;-91
2023/06/13 03:22:21;;;;;;;;;;;;;;;;;;5096590;28;20373;-90
2023/06/13 03:24:47;;;;;;;;;;;;;;;;;;5113369;28;20019;-89
2023/06/13 03:27:13;;;;;;;;;;;;;;;;;;5095677;28;20282;-91
2023/06/13 03:29:40;;;;;;;;;;;;;;;;;;5093096;28;19920;-91
2023/06/13 03:32:06;;;;;;;;;;;;;;;;;;5093526;28;20372;-89
2023/06/13 03:34:37;;;;;;;;;;;;;;;;;;5075879;28;19927;-91
2023/06/13 03:37:04;;;;;;;;;;;;;;;;;;5095681;28;19955;-91
2023/06/13 03:39:30;;;;;;;;;;;;;;;;;;5094421;28;20368;-92
2023/06/13 03:41:56;;;;;;;;;;;;;;;;;;5094394;28;19927;-92
2023/06/13 03:44:22;;;;;;;;;;;;;;;;;;5094201;28;19921;-92
2023/06/13 03:46:47;;;;;;;;;;;;;;;;;;5094232;28;20388;-92
2023/06/13 03:49:13;;;;;;;;;;;;;;;;;;5093901;28;20314;-92
2023/06/13 03:51:39;;;;;;;;;;;;;;;;;;5093913;28;19920;-92
2023/06/13 03:54:05;;;;;;;;;;;;;;;;;;5114260;28;20355;-92
2023/06/13 03:56:31;;;;;;;;;;;;;;;;;;5103743;28;19928;-91
2023/06/13 03:58:57;;;;;;;;;;;;;;;;;;5109436;28;20368;-92
2023/06/13 04:01:24;;;;;;;;;;;;;;;;;;5114248;28;19927;-91
2023/06/13 04:03:50;;;;;;;;;;;;;;;;;;5095080;28;20006;-91
2023/06/13 04:06:16;;;;;;;;;;;;;;;;;;5102218;28;20374;-92
2023/06/13 04:08:42;;;;;;;;;;;;;;;;;;5114377;28;20007;-92
2023/06/13 04:11:07;;;;;;;;;;;;;;;;;;5093258;28;19920;-92
2023/06/13 04:13:34;;;;;;;;;;;;;;;;;;5060367;28;19920;-92
2023/06/13 04:16:00;;;;;;;;;;;;;;;;;;5060890;28;19920;-91
2023/06/13 04:18:27;;;;;;;;;;;;;;;;;;5059831;28;19920;-89
2023/06/13 04:20:53;;;;;;;;;;;;;;;;;;5059945;28;19920;-89
2023/06/13 04:23:18;;;;;;;;;;;;;;;;;;5060258;28;19924;-92
2023/06/13 04:25:44;;;;;;;;;;;;;;;;;;5067296;28;19931;-92
2023/06/13 04:28:12;;;;;;;;;;;;;;;;;;5114373;28;20357;-92
2023/06/13 04:30:40;;;;;;;;;;;;;;;;;;5099214;28;19926;-92
2023/06/13 04:33:14;;;;;;;;;;;;;;;;;;5085468;28;19920;-90
2023/06/13 04:35:44;;;;;;;;;;;;;;;;;;5064078;28;20006;-93
2023/06/13 04:38:10;;;;;;;;;;;;;;;;;;5063686;28;19942;-92
2023/06/13 04:40:37;;;;;;;;;;;;;;;;;;5063568;28;19924;-92
2023/06/13 04:43:04;;;;;;;;;;;;;;;;;;5080551;28;19920;-91
2023/06/13 04:45:30;;;;;;;;;;;;;;;;;;5097313;28;19930;-92
2023/06/13 04:48:01;;;;;;;;;;;;;;;;;;5080052;28;20007;-92
2023/06/13 04:53:21;;;;;;;;;;;;;;;;;;5080054;28;20300;-92
2023/06/13 04:55:48;;;;;;;;;;;;;;;;;;5063372;28;19967;-91
2023/06/13 04:58:13;;;;;;;;;;;;;;;;;;5063763;28;19920;-91
2023/06/13 05:00:39;;;;;;;;;;;;;;;;;;5062647;28;20369;-84
2023/06/13 05:03:06;;;;;;;;;;;;;;;;;;5061620;28;19920;-85
2023/06/13 05:05:32;;;;;;;;;;;;;;;;;;5061639;28;19931;-85
2023/06/13 05:07:59;;;;;;;;;;;;;;;;;;5061448;28;20389;-85
2023/06/13 05:10:25;;;;;;;;;;;;;;;;;;5061280;28;19927;-85
2023/06/13 05:12:51;;;;;;;;;;;;;;;;;;5078258;28;20369;-85
2023/06/13 05:15:18;;;;;;;;;;;;;;;;;;5061464;28;19920;-85
2023/06/13 05:17:48;;;;;;;;;;;;;;;;;;5061548;28;20015;-85
2023/06/13 05:20:14;;;;;;;;;;;;;;;;;;5061322;28;19924;-84
2023/06/13 05:22:41;;;;;;;;;;;;;;;;;;5077638;28;19927;-85
2023/06/13 05:25:11;;;;;;;;;;;;;;;;;;5061019;28;19924;-85
2023/06/13 05:27:37;;;;;;;;;;;;;;;;;;5061254;28;19924;-85
2023/06/13 05:30:03;;;;;;;;;;;;;;;;;;5111708;28;20471;-84
2023/06/13 05:32:29;;;;;;;;;;;;;;;;;;5077906;28;19935;-85
2023/06/13 05:34:56;;;;;;;;;;;;;;;;;;5060809;28;19920;-85
2023/06/13 05:37:22;;;;;;;;;;;;;;;;;;5061044;28;19927;-85
2023/06/13 05:39:48;;;;;;;;;;;;;;;;;;5111723;28;20373;-84
2023/06/13 05:42:14;;;;;;;;;;;;;;;;;;5060266;28;20012;-84
2023/06/13 05:44:40;;;;;;;;;;;;;;;;;;5060858;28;19928;-85
2023/06/13 05:47:06;;;;;;;;;;;;;;;;;;5061264;28;19920;-86
2023/06/13 05:49:32;;;;;;;;;;;;;;;;;;5060826;28;19969;-87
2023/06/13 05:51:58;;;;;;;;;;;;;;;;;;5060498;28;19974;-86
2023/06/13 05:54:23;;;;;;;;;;;;;;;;;;5061100;28;19999;-87
2023/06/13 05:56:49;;;;;;;;;;;;;;;;;;5060820;28;19926;-86
2023/06/13 05:59:15;;;;;;;;;;;;;;;;;;5060689;28;19923;-86
2023/06/13 06:01:41;;;;;;;;;;;;;;;;;;5110986;28;19935;-86
2023/06/13 06:04:07;;;;;;;;;;;;;;;;;;5060666;28;19943;-86
2023/06/13 06:06:34;;;;;;;;;;;;;;;;;;5111472;28;20385;-88
2023/06/13 06:09:00;;;;;;;;;;;;;;;;;;5061048;28;19926;-88
2023/06/13 06:11:26;;;;;;;;;;;;;;;;;;5060852;28;19920;-92
2023/06/13 06:13:52;;;;;;;;;;;;;;;;;;5109292;28;20004;-88
2023/06/13 06:16:18;;;;;;;;;;;;;;;;;;5059547;28;20288;-88
2023/06/13 06:18:44;;;;;;;;;;;;;;;;;;5110597;28;19946;-88
2023/06/13 06:21:10;;;;;;;;;;;;;;;;;;5059431;28;19960;-89
2023/06/13 06:23:36;;;;;;;;;;;;;;;;;;5059888;28;19981;-88
2023/06/13 06:26:02;;;;;;;;;;;;;;;;;;5059711;28;20453;-91
2023/06/13 06:28:28;;;;;;;;;;;;;;;;;;5059487;28;19920;-86
2023/06/13 06:30:54;;;;;;;;;;;;;;;;;;5059091;28;19919;-87
2023/06/13 06:33:20;;;;;;;;;;;;;;;;;;5059297;28;19978;-87
2023/06/13 06:35:46;;;;;;;;;;;;;;;;;;5059336;28;19920;-87
2023/06/13 06:38:11;;;;;;;;;;;;;;;;;;5076136;28;19931;-88
2023/06/13 06:40:37;;;;;;;;;;;;;;;;;;5058838;28;20262;-87
2023/06/13 06:43:07;;;;;;;;;;;;;;;;;;5058047;28;19920;-86
2023/06/13 06:45:33;;;;;;;;;;;;;;;;;;5105318;28;19931;-88
2023/06/13 06:48:01;;;;;;;;;;;;;;;;;;5105364;28;19920;-88
2023/06/13 06:50:27;;;;;;;;;;;;;;;;;;5079586;28;20396;-87
2023/06/13 06:52:53;;;;;;;;;;;;;;;;;;5091982;28;19967;-87
2023/06/13 06:55:19;;;;;;;;;;;;;;;;;;5092277;28;19920;-93
2023/06/13 06:57:45;;;;;;;;;;;;;;;;;;5092311;28;19920;-86
2023/06/13 07:00:14;;;;;;;;;;;;;;;;;;5057628;28;20188;-88
2023/06/13 07:02:40;;;;;;;;;;;;;;;;;;5088826;28;20396;-89
2023/06/13 07:05:06;;;;;;;;;;;;;;;;;;5092603;28;19950;-88
2023/06/13 07:07:35;;;;;;;;;;;;;;;;;;5092614;28;19927;-89
2023/06/13 07:10:01;;;;;;;;;;;;;;;;;;5092262;28;19924;-88
2023/06/13 07:12:27;;;;;;;;;;;;;;;;;;5109952;28;19969;-91
2023/06/13 07:14:53;;;;;;;;;;;;;;;;;;5093400;28;19920;-87
2023/06/13 07:17:19;;;;;;;;;;;;;;;;;;5092093;28;19920;-88
2023/06/13 07:19:45;;;;;;;;;;;;;;;;;;5074875;28;20380;-87
2023/06/13 07:22:11;;;;;;;;;;;;;;;;;;5092148;28;19924;-87
2023/06/13 07:24:37;;;;;;;;;;;;;;;;;;5091976;28;19927;-87
2023/06/13 07:27:03;;;;;;;;;;;;;;;;;;5080994;28;19925;-90
2023/06/13 07:29:29;;;;;;;;;;;;;;;;;;5101037;28;19927;-87
2023/06/13 07:31:55;;;;;;;;;;;;;;;;;;5060782;28;19920;-87
2023/06/13 07:34:21;;;;;;;;;;;;;;;;;;5107752;28;19924;-85
2023/06/13 07:36:48;;;;;;;;;;;;;;;;;;5093196;28;20369;-85
2023/06/13 07:39:14;;;;;;;;;;;;;;;;;;5101893;28;19927;-86
2023/06/13 07:41:40;;;;;;;;;;;;;;;;;;5109094;28;20262;-85
2023/06/13 07:44:06;;;;;;;;;;;;;;;;;;5058056;28;20377;-82
2023/06/13 07:46:32;;;;;;;;;;;;;;;;;;5069913;28;19939;-84
2023/06/13 07:48:57;;;;;;;;;;;;;;;;;;5058746;28;19926;-86
2023/06/13 07:51:24;;;;;;;;;;;;;;;;;;5057501;28;20356;-86
2023/06/13 07:53:49;;;;;;;;;;;;;;;;;;5092510;28;19924;-86
2023/06/13 07:56:16;;;;;;;;;;;;;;;;;;5093670;28;19920;-85
2023/06/13 07:58:42;;;;;;;;;;;;;;;;;;5052161;28;19924;-85
2023/06/13 08:01:08;;;;;;;;;;;;;;;;;;5086197;28;19927;-86
2023/06/13 08:03:35;;;;;;;;;;;;;;;;;;5057231;28;21019;-85
2023/06/13 08:06:01;;;;;;;;;;;;;;;;;;5074872;28;21518;-88
2023/06/13 08:08:27;;;;;;;;;;;;;;;;;;5060078;28;19920;-89
2023/06/13 08:10:54;;;;;;;;;;;;;;;;;;5060328;28;20391;-86
2023/06/13 08:13:20;;;;;;;;;;;;;;;;;;5093110;28;20001;-88
2023/06/13 08:15:46;;;;;;;;;;;;;;;;;;5092684;28;19935;-88
2023/06/13 08:18:12;;;;;;;;;;;;;;;;;;5092176;28;19928;-90
2023/06/13 08:20:37;;;;;;;;;;;;;;;;;;5059957;28;19924;-92
2023/06/13 08:23:03;;;;;;;;;;;;;;;;;;5094736;28;19924;-88
2023/06/13 08:25:29;;;;;;;;;;;;;;;;;;5059311;28;19924;-85
2023/06/13 08:27:55;;;;;;;;;;;;;;;;;;5076694;28;19927;-83
2023/06/13 08:30:21;;;;;;;;;;;;;;;;;;5056133;28;19938;-83
2023/06/13 08:32:47;;;;;;;;;;;;;;;;;;5087732;28;19927;-83
2023/06/13 08:35:13;;;;;;;;;;;;;;;;;;5090010;28;19920;-85
2023/06/13 08:37:39;;;;;;;;;;;;;;;;;;5092770;28;19920;-84
2023/06/13 08:40:07;;;;;;;;;;;;;;;;;;5059200;28;20361;-85
2023/06/13 08:42:34;;;;;;;;;;;;;;;;;;5059655;28;19927;-85
2023/06/13 08:45:00;;;;;;;;;;;;;;;;;;5076169;28;19920;-84
2023/06/13 08:47:25;;;;;;;;;;;;;;;;;;5075236;28;19920;-86
2023/06/13 08:49:52;;;;;;;;;;;;;;;;;;5074399;28;19924;-85
2023/06/13 08:52:18;;;;;;;;;;;;;;;;;;5057860;28;19927;-85
2023/06/13 08:54:44;;;;;;;;;;;;;;;;;;5058095;28;19925;-86
2023/06/13 08:57:10;;;;;;;;;;;;;;;;;;5088604;28;19946;-86
2023/06/13 08:59:36;;;;;;;;;;;;;;;;;;5079269;28;20304;-86
2023/06/13 09:02:02;;;;;;;;;;;;;;;;;;5063450;28;19923;-89
2023/06/13 09:04:28;;;;;;;;;;;;;;;;;;5061341;28;19931;-86
2023/06/13 09:06:54;;;;;;;;;;;;;;;;;;5060034;28;20465;-84
2023/06/13 09:09:19;;;;;;;;;;;;;;;;;;5092567;28;19948;-85
2023/06/13 09:11:45;;;;;;;;;;;;;;;;;;5092257;28;20380;-84
2023/06/13 09:14:11;;;;;;;;;;;;;;;;;;5090971;28;20445;-83
2023/06/13 09:16:37;;;;;;;;;;;;;;;;;;5089326;28;20377;-83
2023/06/13 09:19:03;;;;;;;;;;;;;;;;;;5057535;28;19973;-84
2023/06/13 09:21:29;;;;;;;;;;;;;;;;;;5088689;28;20384;-84
2023/06/13 09:23:59;;;;;;;;;;;;;;;;;;5059069;28;19920;-84
2023/06/13 09:26:25;;;;;;;;;;;;;;;;;;5091709;28;19936;-82
2023/06/13 09:28:51;;;;;;;;;;;;;;;;;;5059161;28;20272;-82
2023/06/13 09:31:16;;;;;;;;;;;;;;;;;;5074428;28;20363;-83
2023/06/13 09:33:42;;;;;;;;;;;;;;;;;;5057759;28;19924;-82
2023/06/13 09:36:09;;;;;;;;;;;;;;;;;;5107269;28;20011;-82
2023/06/13 09:38:35;;;;;;;;;;;;;;;;;;5057051;28;19920;-82
2023/06/13 09:41:01;;;;;;;;;;;;;;;;;;5073771;28;20006;-83
2023/06/13 09:43:27;;;;;;;;;;;;;;;;;;5057056;28;19947;-84
2023/06/13 09:45:53;;;;;;;;;;;;;;;;;;5107819;28;20324;-83
2023/06/13 09:48:19;;;;;;;;;;;;;;;;;;5058600;28;20011;-83
2023/06/13 09:50:45;;;;;;;;;;;;;;;;;;5058773;28;19927;-82
2023/06/13 09:53:11;;;;;;;;;;;;;;;;;;5058948;28;19931;-82
2023/06/13 09:55:37;;;;;;;;;;;;;;;;;;5058985;28;19920;-82
2023/06/13 09:58:03;;;;;;;;;;;;;;;;;;5075367;28;20376;-83
2023/06/13 10:00:29;;;;;;;;;;;;;;;;;;5058439;28;20293;-82
2023/06/13 10:02:55;;;;;;;;;;;;;;;;;;5058701;28;19926;-82
2023/06/13 10:05:21;;;;;;;;;;;;;;;;;;5058436;28;19986;-83
2023/06/13 10:07:47;;;;;;;;;;;;;;;;;;5058929;28;20281;-82
2023/06/13 10:10:13;;;;;;;;;;;;;;;;;;5058211;28;19928;-83
2023/06/13 10:12:39;;;;;;;;;;;;;;;;;;5055882;28;19962;-82
2023/06/13 10:15:05;;;;;;;;;;;;;;;;;;5088355;28;19920;-82
2023/06/13 10:17:35;;;;;;;;;;;;;;;;;;5082839;28;20280;-83
2023/06/13 10:20:01;;;;;;;;;;;;;;;;;;5090608;28;19927;-82
2023/06/13 10:22:26;;;;;;;;;;;;;;;;;;5080320;28;20357;-82
2023/06/13 10:24:52;;;;;;;;;;;;;;;;;;5074009;28;19920;-83
2023/06/13 10:27:18;;;;;;;;;;;;;;;;;;5091243;28;19973;-83
2023/06/13 10:29:44;;;;;;;;;;;;;;;;;;5069642;28;19928;-83
2023/06/13 10:32:10;;;;;;;;;;;;;;;;;;5076378;28;19942;-82
2023/06/13 10:34:36;;;;;;;;;;;;;;;;;;5092339;28;19924;-82
2023/06/13 10:37:03;;;;;;;;;;;;;;;;;;5086737;28;19928;-82
2023/06/13 10:39:29;;;;;;;;;;;;;;;;;;5087670;28;20442;-83
2023/06/13 10:41:55;;;;;;;;;;;;;;;;;;5065866;28;19920;-82
2023/06/13 10:44:21;;;;;;;;;;;;;;;;;;5061461;28;20424;-83
2023/06/13 10:46:47;;;;;;;;;;;;;;;;;;5061526;28;20229;-83
2023/06/13 10:49:13;;;;;;;;;;;;;;;;;;5058552;28;20586;-82
2023/06/13 10:51:39;;;;;;;;;;;;;;;;;;5085924;28;19920;-82
2023/06/13 10:54:05;;;;;;;;;;;;;;;;;;5057457;28;19927;-83
2023/06/13 10:56:31;;;;;;;;;;;;;;;;;;5058700;28;19919;-84
2023/06/13 10:58:57;;;;;;;;;;;;;;;;;;5105297;28;20321;-84
2023/06/13 11:01:23;;;;;;;;;;;;;;;;;;5059232;28;20296;-84
2023/06/13 11:03:48;;;;;;;;;;;;;;;;;;5107617;28;19920;-84
2023/06/13 11:06:14;;;;;;;;;;;;;;;;;;5089468;28;19964;-84
2023/06/13 11:08:40;;;;;;;;;;;;;;;;;;5066947;28;19984;-83
2023/06/13 11:11:06;;;;;;;;;;;;;;;;;;5089498;28;19920;-84
2023/06/13 11:13:32;;;;;;;;;;;;;;;;;;5056940;28;19920;-84
2023/06/13 11:15:58;;;;;;;;;;;;;;;;;;5056704;28;19920;-83
2023/06/13 11:18:25;;;;;;;;;;;;;;;;;;5056306;28;20322;-84
2023/06/13 11:20:51;;;;;;;;;;;;;;;;;;5054140;28;20360;-83
2023/06/13 11:23:17;;;;;;;;;;;;;;;;;;5053027;28;19920;-82
2023/06/13 11:25:43;;;;;;;;;;;;;;;;;;5090543;28;20046;-85
2023/06/13 11:28:09;;;;;;;;;;;;;;;;;;5064216;28;19967;-84
2023/06/13 11:30:35;;;;;;;;;;;;;;;;;;5085798;28;20363;-82
2023/06/13 11:33:01;;;;;;;;;;;;;;;;;;5065192;28;19926;-84
2023/06/13 11:35:26;;;;;;;;;;;;;;;;;;5062129;28;19920;-83
2023/06/13 11:37:56;;;;;;;;;;;;;;;;;;5099459;28;19920;-87
2023/06/13 11:40:22;;;;;;;;;;;;;;;;;;5064171;28;19935;-87
2023/06/13 11:42:48;;;;;;;;;;;;;;;;;;5091025;28;19928;-85
2023/06/13 11:45:14;;;;;;;;;;;;;;;;;;5094657;28;20376;-86
2023/06/13 11:47:40;;;;;;;;;;;;;;;;;;5092569;28;19920;-83
2023/06/13 11:50:06;;;;;;;;;;;;;;;;;;5062016;28;19920;-83
2023/06/13 11:52:31;;;;;;;;;;;;;;;;;;5059928;28;19928;-83
2023/06/13 11:54:59;;;;;;;;;;;;;;;;;;5077912;28;19920;-87
2023/06/13 11:57:25;;;;;;;;;;;;;;;;;;5061293;28;20288;-85
2023/06/13 11:59:51;;;;;;;;;;;;;;;;;;5077004;28;19920;-85
2023/06/13 12:02:18;;;;;;;;;;;;;;;;;;5079938;28;19920;-85
2023/06/13 12:04:44;;;;;;;;;;;;;;;;;;5080535;28;19920;-85
2023/06/13 12:07:10;;;;;;;;;;;;;;;;;;5093895;28;19931;-84
2023/06/13 12:09:36;;;;;;;;;;;;;;;;;;5093761;28;20454;-85
2023/06/13 12:12:02;;;;;;;;;;;;;;;;;;5060427;28;19924;-86
2023/06/13 12:14:30;;;;;;;;;;;;;;;;;;5060463;28;19920;-85
2023/06/13 12:16:56;;;;;;;;;;;;;;;;;;5059989;28;20291;-84
2023/06/13 12:19:22;;;;;;;;;;;;;;;;;;5069153;28;19923;-85
2023/06/13 12:21:48;;;;;;;;;;;;;;;;;;5068064;28;19934;-84
2023/06/13 12:24:14;;;;;;;;;;;;;;;;;;5068854;28;19958;-84
2023/06/13 12:26:43;;;;;;;;;;;;;;;;;;5083344;28;20384;-86
2023/06/13 12:29:11;;;;;;;;;;;;;;;;;;5065415;28;19920;-84
2023/06/13 12:31:38;;;;;;;;;;;;;;;;;;5059634;28;19920;-84
2023/06/13 12:34:04;;;;;;;;;;;;;;;;;;5066678;28;20299;-85
2023/06/13 12:36:32;;;;;;;;;;;;;;;;;;5082074;28;20432;-82
2023/06/13 12:38:59;;;;;;;;;;;;;;;;;;5098466;28;20015;-83
2023/06/13 12:41:26;;;;;;;;;;;;;;;;;;5087553;28;20370;-82
2023/06/13 12:43:52;;;;;;;;;;;;;;;;;;5068750;28;20273;-81
2023/06/13 12:46:18;;;;;;;;;;;;;;;;;;5067101;28;19931;-82
2023/06/13 12:48:44;;;;;;;;;;;;;;;;;;5067761;28;20497;-85
2023/06/13 12:51:10;;;;;;;;;;;;;;;;;;5108674;28;19969;-84
2023/06/13 12:53:36;;;;;;;;;;;;;;;;;;5086424;28;20015;-84
2023/06/13 12:56:02;;;;;;;;;;;;;;;;;;5065672;28;19946;-84
2023/06/13 12:58:29;;;;;;;;;;;;;;;;;;5069376;28;19953;-84
2023/06/13 13:00:55;;;;;;;;;;;;;;;;;;5068511;28;20420;-84
2023/06/13 13:03:23;;;;;;;;;;;;;;;;;;5093093;28;19968;-84
2023/06/13 13:05:49;;;;;;;;;;;;;;;;;;5061672;28;20044;-84
2023/06/13 13:08:15;;;;;;;;;;;;;;;;;;5067574;28;20445;-82
2023/06/13 13:10:41;;;;;;;;;;;;;;;;;;5110009;28;19920;-84
2023/06/13 13:13:07;;;;;;;;;;;;;;;;;;5073861;28;19920;-82
2023/06/13 13:18:04;;;;;;;;;;;;;;;;;;5110889;28;19963;-83
2023/06/13 13:20:30;;;;;;;;;;;;;;;;;;5093984;28;19920;-83
2023/06/13 13:22:56;;;;;;;;;;;;;;;;;;5092478;28;20575;-83
2023/06/13 13:25:26;;;;;;;;;;;;;;;;;;5097794;28;19981;-83
2023/06/13 13:27:53;;;;;;;;;;;;;;;;;;5076363;28;19974;-83
2023/06/13 13:30:18;;;;;;;;;;;;;;;;;;5060158;28;19974;-83
2023/06/13 13:32:46;;;;;;;;;;;;;;;;;;5075788;28;20351;-82
2023/06/13 13:35:12;;;;;;;;;;;;;;;;;;5093674;28;19924;-83
2023/06/13 13:37:38;;;;;;;;;;;;;;;;;;5092462;28;20274;-83
2023/06/13 13:40:04;;;;;;;;;;;;;;;;;;5090059;28;19924;-83
2023/06/13 13:42:36;;;;;;;;;;;;;;;;;;5059822;28;19927;-83
2023/06/13 13:45:02;;;;;;;;;;;;;;;;;;5092378;28;19923;-83
2023/06/13 13:47:28;;;;;;;;;;;;;;;;;;5059229;28;19920;-84
2023/06/13 13:49:57;;;;;;;;;;;;;;;;;;5074970;28;19931;-85
2023/06/13 13:52:23;;;;;;;;;;;;;;;;;;5059004;28;19920;-85
2023/06/13 13:54:48;;;;;;;;;;;;;;;;;;5109601;28;20057;-85
2023/06/13 13:57:14;;;;;;;;;;;;;;;;;;5094236;28;19927;-85
2023/06/13 13:59:40;;;;;;;;;;;;;;;;;;5108539;28;20015;-85
2023/06/13 14:02:06;;;;;;;;;;;;;;;;;;5057769;28;19959;-83
2023/06/13 14:04:32;;;;;;;;;;;;;;;;;;5074933;28;20373;-83
2023/06/13 14:06:58;;;;;;;;;;;;;;;;;;5061804;28;19931;-84
2023/06/13 14:09:24;;;;;;;;;;;;;;;;;;5080984;28;20377;-84
2023/06/13 14:11:50;;;;;;;;;;;;;;;;;;5058318;28;19920;-83
2023/06/13 14:14:17;;;;;;;;;;;;;;;;;;5058504;28;19969;-84
2023/06/13 14:16:43;;;;;;;;;;;;;;;;;;5083172;28;19919;-83
2023/06/13 14:19:09;;;;;;;;;;;;;;;;;;5091247;28;20280;-83
2023/06/13 14:21:35;;;;;;;;;;;;;;;;;;5067969;28;19920;-83
2023/06/13 14:24:01;;;;;;;;;;;;;;;;;;5070115;28;19919;-83
2023/06/13 14:26:27;;;;;;;;;;;;;;;;;;5090073;28;20396;-83
2023/06/13 14:28:53;;;;;;;;;;;;;;;;;;5066827;28;19974;-83
2023/06/13 14:31:19;;;;;;;;;;;;;;;;;;5087220;28;20005;-83
2023/06/13 14:33:45;;;;;;;;;;;;;;;;;;5074363;28;19920;-83
2023/06/13 14:36:11;;;;;;;;;;;;;;;;;;5058158;28;20100;-83
2023/06/13 14:38:38;;;;;;;;;;;;;;;;;;5057471;28;20373;-84
2023/06/13 14:41:04;;;;;;;;;;;;;;;;;;5107181;28;19975;-83
2023/06/13 14:43:30;;;;;;;;;;;;;;;;;;5057623;28;19955;-83
2023/06/13 14:45:56;;;;;;;;;;;;;;;;;;5074441;28;19974;-83
2023/06/13 14:48:22;;;;;;;;;;;;;;;;;;5074969;28;19926;-82
2023/06/13 14:50:48;;;;;;;;;;;;;;;;;;5056918;28;19924;-83
2023/06/13 14:53:14;;;;;;;;;;;;;;;;;;5102838;28;19954;-83
2023/06/13 14:55:40;;;;;;;;;;;;;;;;;;5071591;28;19972;-83
2023/06/13 14:58:06;;;;;;;;;;;;;;;;;;5060913;28;19981;-83
2023/06/13 15:00:32;;;;;;;;;;;;;;;;;;5104899;28;19931;-83
2023/06/13 15:02:58;;;;;;;;;;;;;;;;;;5078913;28;19977;-83
2023/06/13 15:05:25;;;;;;;;;;;;;;;;;;5079278;28;20287;-83
2023/06/13 15:07:51;;;;;;;;;;;;;;;;;;5081466;28;19920;-83
2023/06/13 15:10:17;;;;;;;;;;;;;;;;;;5057278;28;19928;-83
2023/06/13 15:12:43;;;;;;;;;;;;;;;;;;5082770;28;19924;-83
2023/06/13 15:15:09;;;;;;;;;;;;;;;;;;5103419;28;20006;-83
2023/06/13 15:17:35;;;;;;;;;;;;;;;;;;5065490;28;19964;-83
2023/06/13 15:20:01;;;;;;;;;;;;;;;;;;5060795;28;19920;-83
2023/06/13 15:22:27;;;;;;;;;;;;;;;;;;5092224;28;19935;-82
2023/06/13 15:24:53;;;;;;;;;;;;;;;;;;5066755;28;19920;-83
2023/06/13 15:27:19;;;;;;;;;;;;;;;;;;5058494;28;19931;-83
2023/06/13 15:29:45;;;;;;;;;;;;;;;;;;5053111;28;20408;-83
2023/06/13 15:32:11;;;;;;;;;;;;;;;;;;5089906;28;20015;-84
2023/06/13 15:34:37;;;;;;;;;;;;;;;;;;5074784;28;20416;-83
2023/06/13 15:37:04;;;;;;;;;;;;;;;;;;5090841;28;19927;-84
2023/06/13 15:39:30;;;;;;;;;;;;;;;;;;5089038;28;20490;-82
2023/06/13 15:41:56;;;;;;;;;;;;;;;;;;5049698;28;20022;-83
2023/06/13 15:44:22;;;;;;;;;;;;;;;;;;5101764;28;19933;-83
2023/06/13 15:46:48;;;;;;;;;;;;;;;;;;5054107;28;19935;-83
2023/06/13 15:49:14;;;;;;;;;;;;;;;;;;5056891;28;20376;-83
2023/06/13 15:51:40;;;;;;;;;;;;;;;;;;5104657;28;20005;-83
2023/06/13 15:54:06;;;;;;;;;;;;;;;;;;5055045;28;19920;-82
2023/06/13 15:56:32;;;;;;;;;;;;;;;;;;5071738;28;19963;-82
2023/06/13 15:58:58;;;;;;;;;;;;;;;;;;5054443;28;19923;-82
2023/06/13 16:01:24;;;;;;;;;;;;;;;;;;5054396;28;19946;-82
2023/06/13 16:03:50;;;;;;;;;;;;;;;;;;5054660;28;19924;-82
2023/06/13 16:06:16;;;;;;;;;;;;;;;;;;5054805;28;20335;-82
2023/06/13 16:08:42;;;;;;;;;;;;;;;;;;5057179;28;19977;-82
2023/06/13 16:11:08;;;;;;;;;;;;;;;;;;5060134;28;19920;-82
2023/06/13 16:13:34;;;;;;;;;;;;;;;;;;5057701;28;20262;-82
2023/06/13 16:16:00;;;;;;;;;;;;;;;;;;5052484;28;19924;-83
2023/06/13 16:18:26;;;;;;;;;;;;;;;;;;5055377;28;19920;-82
2023/06/13 16:20:52;;;;;;;;;;;;;;;;;;5105170;28;19924;-82
2023/06/13 16:23:18;;;;;;;;;;;;;;;;;;5055465;28;19927;-82
2023/06/13 16:25:44;;;;;;;;;;;;;;;;;;5056782;28;19924;-83
2023/06/13 16:28:10;;;;;;;;;;;;;;;;;;5092235;28;20281;-83
2023/06/13 16:30:38;;;;;;;;;;;;;;;;;;5058080;28;19974;-84
2023/06/13 16:33:05;;;;;;;;;;;;;;;;;;5058675;28;19924;-83
2023/06/13 16:35:31;;;;;;;;;;;;;;;;;;5109559;28;19927;-82
2023/06/13 16:37:57;;;;;;;;;;;;;;;;;;5058249;28;19924;-82
2023/06/13 16:40:23;;;;;;;;;;;;;;;;;;5108992;28;20302;-82
2023/06/13 16:42:50;;;;;;;;;;;;;;;;;;5055805;28;19931;-83